Time;durP1;ratioP1;P1;durP2;ratioP2;P2;SDS_P1;SDS_P2;PMS_P1;PMS_P2;Temp;Humidity;BMP_temperature;BMP_pressure;BME280_temperature;BME280_humidity;BME280_pressure;Samples;Min_cycle;Max_cycle;Signal;HPM_P1;HPM_P2
2021/11/12 00:02:14;;;;;;;141.20;46.60;;;;;;;0.15;100.00;98421.91;6314930;22;20027;-82
2021/11/12 00:12:57;;;;;;;168.23;48.77;;;;;;;-0.03;100.00;98406.00;6315748;22;20023;-83
2021/11/12 00:15:23;;;;;;;169.00;47.78;;;;;;;0.06;100.00;98441.06;6316815;22;20023;-84
2021/11/12 00:17:50;;;;;;;151.15;47.17;;;;;;;0.02;100.00;98416.78;6311293;22;20023;-82
2021/11/12 00:20:17;;;;;;;168.57;50.08;;;;;;;0.15;100.00;98429.06;6304257;22;20027;-83
2021/11/12 00:22:43;;;;;;;183.23;47.50;;;;;;;0.17;100.00;98440.28;6305743;22;20365;-83
2021/11/12 00:25:10;;;;;;;294.92;51.10;;;;;;;0.03;100.00;98436.22;6305518;22;20031;-82
2021/11/12 00:27:37;;;;;;;584.63;57.45;;;;;;;-0.08;100.00;98419.19;6307490;22;20330;-83
2021/11/12 00:30:25;;;;;;;223.70;48.72;;;;;;;-0.11;100.00;98414.31;6307051;22;20049;-82
2021/11/12 00:33:03;;;;;;;243.80;48.08;;;;;;;0.07;100.00;98424.91;6308268;22;20123;-84
2021/11/12 00:35:44;;;;;;;221.88;53.60;;;;;;;-0.12;100.00;98428.66;6308155;22;20027;-84
2021/11/12 00:38:27;;;;;;;161.75;48.33;;;;;;;0.15;100.00;98429.06;6311013;22;20019;-84
2021/11/12 00:43:34;;;;;;;199.82;48.40;;;;;;;0.06;100.00;98420.59;6305256;22;20026;-83
2021/11/12 00:46:11;;;;;;;234.68;50.60;;;;;;;0.12;100.00;98425.03;6304906;22;20076;-83
2021/11/12 00:51:45;;;;;;;271.50;53.40;;;;;;;0.07;100.00;98424.91;6281731;22;20023;-84
2021/11/12 00:54:12;;;;;;;290.17;52.72;;;;;;;0.16;100.00;98428.00;6320813;22;20023;-83
2021/11/12 00:56:39;;;;;;;176.00;51.42;;;;;;;0.01;100.00;98380.56;6322332;22;20365;-83
2021/11/12 00:59:08;;;;;;;275.38;54.03;;;;;;;0.14;100.00;98430.09;6315009;22;20087;-84
2021/11/12 01:01:38;;;;;;;326.08;53.63;;;;;;;-0.02;100.00;98428.91;6313345;22;20362;-84
2021/11/12 01:04:09;;;;;;;237.20;50.20;;;;;;;0.15;100.00;98431.72;6315221;22;20055;-83
2021/11/12 01:06:37;;;;;;;334.02;53.22;;;;;;;0.19;100.00;98416.91;6314199;22;20031;-83
2021/11/12 01:09:09;;;;;;;233.27;50.22;;;;;;;0.09;100.00;98416.66;6313111;22;20073;-83
2021/11/12 01:11:37;;;;;;;262.63;49.92;;;;;;;0.23;100.00;98416.25;6312160;22;20027;-84
2021/11/12 01:14:05;;;;;;;335.98;52.28;;;;;;;0.05;100.00;98419.00;6302759;22;20465;-84
2021/11/12 01:16:32;;;;;;;251.88;53.00;;;;;;;-0.15;100.00;98405.97;6315236;22;20114;-85
2021/11/12 01:18:59;;;;;;;254.77;50.05;;;;;;;-0.17;100.00;98421.34;6314068;22;20049;-84
2021/11/12 01:21:26;;;;;;;208.65;47.85;;;;;;;0.07;100.00;98416.09;6313889;22;20027;-84
2021/11/12 01:23:55;;;;;;;198.98;48.20;;;;;;;0.11;100.00;98402.09;6312788;22;20023;-83
2021/11/12 01:26:23;;;;;;;249.10;52.75;;;;;;;0.14;100.00;98409.63;6314193;22;20030;-83
2021/11/12 01:28:51;;;;;;;181.13;49.13;;;;;;;-0.02;100.00;98402.28;6313636;22;20453;-83
2021/11/12 01:31:20;;;;;;;209.82;51.83;;;;;;;-0.08;100.00;98404.00;6314580;22;20023;-82
2021/11/12 01:33:46;;;;;;;196.70;50.03;;;;;;;-0.05;100.00;98398.25;6306046;22;20034;-82
2021/11/12 01:38:58;;;;;;;267.38;50.88;;;;;;;0.07;100.00;98397.47;6305369;22;20259;-82
2021/11/12 01:41:25;;;;;;;247.13;49.35;;;;;;;-0.02;100.00;98387.16;6306394;22;20034;-82
2021/11/12 01:43:54;;;;;;;269.00;51.17;;;;;;;-0.24;100.00;98364.78;6305721;22;20031;-83
2021/11/12 01:46:27;;;;;;;215.73;47.53;;;;;;;-0.13;100.00;98382.59;6303933;22;20027;-83
2021/11/12 01:49:12;;;;;;;265.52;51.13;;;;;;;-0.19;100.00;98378.22;6305991;22;20023;-83
2021/11/12 01:52:24;;;;;;;193.73;49.50;;;;;;;0.01;100.00;98388.53;6306438;22;20027;-83
2021/11/12 01:57:23;;;;;;;209.13;48.45;;;;;;;-0.08;100.00;98379.28;6308470;22;20020;-84
2021/11/12 01:59:55;;;;;;;196.43;48.92;;;;;;;-0.15;100.00;98379.38;6315158;22;20534;-84
2021/11/12 02:02:31;;;;;;;231.48;45.28;;;;;;;-0.33;100.00;98376.75;6310777;22;20084;-82
2021/11/12 02:04:58;;;;;;;143.60;45.20;;;;;;;-0.22;100.00;98369.84;6313370;22;20058;-84
2021/11/12 02:07:25;;;;;;;181.05;46.53;;;;;;;-0.23;100.00;98379.69;6314394;22;20019;-86
2021/11/12 02:09:52;;;;;;;150.50;45.15;;;;;;;-0.38;100.00;98359.88;6314564;22;20035;-84
2021/11/12 02:12:26;;;;;;;123.18;42.35;;;;;;;-0.43;100.00;98352.56;6313848;22;20031;-83
2021/11/12 02:14:55;;;;;;;128.85;40.67;;;;;;;-0.43;100.00;98363.22;6314817;22;20031;-83
2021/11/12 02:17:24;;;;;;;163.43;44.22;;;;;;;-0.57;100.00;98376.94;6315012;22;20023;-83
2021/11/12 02:20:13;;;;;;;134.13;42.30;;;;;;;-0.82;100.00;98331.84;6315423;22;20045;-86
2021/11/12 02:22:40;;;;;;;120.55;41.22;;;;;;;-0.62;100.00;98345.72;6314555;22;20023;-85
2021/11/12 02:25:21;;;;;;;144.38;41.22;;;;;;;-0.58;100.00;98359.34;6315140;22;20393;-85
2021/11/12 02:30:50;;;;;;;116.93;38.22;;;;;;;-0.52;100.00;98361.91;6300019;22;20027;-85
2021/11/12 02:33:21;;;;;;;169.88;40.53;;;;;;;-0.54;100.00;98356.00;6318712;22;20023;-84
2021/11/12 02:36:02;;;;;;;135.90;43.58;;;;;;;-0.38;100.00;98365.19;6318067;22;20023;-85
2021/11/12 02:38:31;;;;;;;120.72;43.05;;;;;;;-0.25;100.00;98367.66;6316597;22;20108;-85
2021/11/12 02:40:59;;;;;;;156.25;43.30;;;;;;;-0.19;100.00;98369.41;6318713;22;20074;-85
2021/11/12 02:43:26;;;;;;;272.63;45.30;;;;;;;-0.27;100.00;98356.44;6316259;22;20026;-84
2021/11/12 02:45:54;;;;;;;146.13;42.67;;;;;;;-0.18;100.00;98350.53;6316029;22;20029;-84
2021/11/12 02:48:21;;;;;;;133.73;44.13;;;;;;;-0.02;100.00;98344.56;6315476;22;20488;-84
2021/11/12 02:50:47;;;;;;;190.95;44.78;;;;;;;0.09;100.00;98350.94;6305061;22;20023;-84
2021/11/12 02:53:16;;;;;;;248.98;43.50;;;;;;;0.06;100.00;98347.91;6304564;22;20027;-85
2021/11/12 02:55:44;;;;;;;121.43;43.22;;;;;;;0.10;100.00;98357.06;6305715;22;20034;-83
2021/11/12 02:58:12;;;;;;;174.73;38.97;;;;;;;0.07;100.00;98346.88;6306824;22;20023;-83
2021/11/12 03:00:40;;;;;;;137.30;37.17;;;;;;;-0.06;100.00;98354.06;6309311;22;20085;-84
2021/11/12 03:03:07;;;;;;;171.40;38.67;;;;;;;-0.09;100.00;98349.19;6309728;22;20027;-83
2021/11/12 03:05:35;;;;;;;127.28;37.78;;;;;;;-0.09;100.00;98361.69;6307912;22;20020;-84
2021/11/12 03:08:02;;;;;;;127.88;38.55;;;;;;;-0.15;100.00;98355.41;6308611;22;20026;-84
2021/11/12 03:10:29;;;;;;;120.38;37.15;;;;;;;-0.33;100.00;98346.69;6311017;22;20050;-83
2021/11/12 03:12:56;;;;;;;104.60;37.42;;;;;;;-0.24;100.00;98355.97;6311838;22;20049;-85
2021/11/12 03:15:22;;;;;;;116.38;39.00;;;;;;;-0.34;100.00;98353.88;6312382;22;20514;-85
2021/11/12 03:17:52;;;;;;;110.03;40.40;;;;;;;-0.37;100.00;98345.53;6311649;22;20079;-83
2021/11/12 03:20:19;;;;;;;89.80;37.08;;;;;;;-0.26;100.00;98356.19;6319009;22;20023;-85
2021/11/12 03:22:57;;;;;;;95.50;39.20;;;;;;;-0.29;100.00;98364.66;6317067;22;20605;-84
2021/11/12 03:25:37;;;;;;;92.97;39.60;;;;;;;-0.24;100.00;98351.47;6316343;22;20023;-83
2021/11/12 04:01:33;;;;;;;63.35;26.65;;;;;;;-0.46;100.00;98373.47;6318642;22;20023;-84
2021/11/12 04:17:29;;;;;;;84.82;35.78;;;;;;;-0.35;100.00;98362.88;6313941;22;20515;-83
2021/11/12 04:20:18;;;;;;;85.43;35.08;;;;;;;-0.25;100.00;98359.66;6314119;22;20489;-86
2021/11/12 05:43:35;;;;;;;65.37;29.07;;;;;;;0.56;100.00;98301.16;6311881;22;20141;-85
2021/11/12 05:50:40;;;;;;;64.93;29.20;;;;;;;0.70;100.00;98307.03;6311365;22;20081;-84
2021/11/12 05:55:52;;;;;;;46.92;22.27;;;;;;;0.43;100.00;98282.75;6314020;22;20027;-85
2021/11/12 05:58:19;;;;;;;64.78;27.70;;;;;;;0.44;100.00;98287.03;6313947;22;20023;-83
2021/11/12 06:00:45;;;;;;;62.22;28.60;;;;;;;0.41;100.00;98300.81;6315755;22;20030;-83
2021/11/12 06:03:12;;;;;;;60.10;28.35;;;;;;;0.17;100.00;98283.22;6318864;22;20455;-85
2021/11/12 06:05:39;;;;;;;63.80;29.92;;;;;;;0.13;100.00;98258.91;6305924;22;20057;-83
2021/11/12 06:08:05;;;;;;;63.08;28.52;;;;;;;0.27;100.00;98278.94;6326514;22;20023;-86
2021/11/12 06:10:32;;;;;;;59.92;27.80;;;;;;;0.25;100.00;98273.06;6325634;22;20030;-84
2021/11/12 06:12:58;;;;;;;64.20;29.73;;;;;;;0.17;100.00;98275.25;6311215;22;20033;-84
2021/11/12 06:15:25;;;;;;;64.57;29.25;;;;;;;0.17;100.00;98281.38;6316957;22;20031;-85
2021/11/12 06:17:52;;;;;;;65.07;28.38;;;;;;;0.20;100.00;98269.47;6316328;22;20029;-83
2021/11/12 06:20:19;;;;;;;63.15;28.48;;;;;;;0.12;100.00;98270.63;6305477;22;20027;-83
2021/11/12 06:22:45;;;;;;;64.97;29.50;;;;;;;0.18;100.00;98259.03;6309985;22;20297;-86
2021/11/12 06:25:12;;;;;;;70.32;29.75;;;;;;;0.16;100.00;98255.81;6311339;22;20027;-84
2021/11/12 06:27:38;;;;;;;67.05;31.67;;;;;;;0.08;100.00;98260.69;6311393;22;20130;-84
2021/11/12 06:30:07;;;;;;;67.95;31.15;;;;;;;0.19;100.00;98283.81;6311162;22;20031;-84
2021/11/12 06:32:33;;;;;;;70.13;32.22;;;;;;;0.09;100.00;98280.91;6308373;22;20031;-83
2021/11/12 06:35:00;;;;;;;71.00;32.38;;;;;;;-0.04;100.00;98285.44;6308334;22;20088;-84
2021/11/12 06:37:27;;;;;;;68.80;32.05;;;;;;;-0.35;100.00;98259.16;6307630;22;20084;-83
2021/11/12 06:39:53;;;;;;;71.32;32.20;;;;;;;-0.31;100.00;98270.94;6310447;22;20093;-83
2021/11/12 06:42:23;;;;;;;69.50;32.70;;;;;;;-0.22;100.00;98266.91;6310826;22;20495;-84
2021/11/12 06:50:24;;;;;;;75.25;34.50;;;;;;;-0.16;100.00;98273.19;6305133;22;20027;-85
2021/11/12 06:52:51;;;;;;;73.85;32.78;;;;;;;0.10;100.00;98263.91;6308527;22;20027;-84
2021/11/12 06:55:19;;;;;;;69.25;31.25;;;;;;;-0.05;100.00;98259.84;6302252;22;20019;-79
2021/11/12 06:57:46;;;;;;;70.32;32.38;;;;;;;-0.07;100.00;98261.13;6304468;22;20033;-78
2021/11/12 07:00:17;;;;;;;68.35;32.10;;;;;;;-0.23;100.00;98241.34;6302285;22;20034;-80
2021/11/12 07:02:44;;;;;;;66.78;31.17;;;;;;;0.03;100.00;98261.34;6303066;22;20519;-79
2021/11/12 07:05:12;;;;;;;64.95;29.50;;;;;;;0.00;100.00;98238.69;6305004;22;20035;-78
2021/11/12 07:07:39;;;;;;;68.97;30.95;;;;;;;0.15;100.00;98264.03;6304409;22;20043;-79
2021/11/12 07:10:07;;;;;;;65.85;29.25;;;;;;;0.17;100.00;98269.94;6305003;22;20102;-78
2021/11/12 07:12:34;;;;;;;63.38;30.25;;;;;;;0.20;100.00;98250.84;6303399;22;20038;-78
2021/11/12 07:15:02;;;;;;;64.65;29.67;;;;;;;0.23;100.00;98266.34;6305374;22;20059;-78
2021/11/12 07:17:29;;;;;;;66.13;28.65;;;;;;;0.31;100.00;98258.00;6303945;22;20027;-80
2021/11/12 07:19:56;;;;;;;70.28;29.25;;;;;;;0.38;100.00;98256.84;6304012;22;20534;-78
2021/11/12 07:22:24;;;;;;;64.18;29.50;;;;;;;0.52;100.00;98250.19;6305325;22;20030;-78
2021/11/12 07:24:51;;;;;;;67.28;29.88;;;;;;;0.49;100.00;98253.31;6303592;22;20027;-79
2021/11/12 07:27:18;;;;;;;83.00;33.72;;;;;;;0.20;100.00;98233.00;6308724;22;20030;-81
2021/11/12 07:30:08;;;;;;;94.82;36.03;;;;;;;0.31;100.00;98253.47;6312438;22;20031;-77
2021/11/12 07:32:37;;;;;;;108.25;40.05;;;;;;;0.44;100.00;98255.09;6309444;22;20037;-79
2021/11/12 07:35:04;;;;;;;102.82;39.17;;;;;;;0.65;100.00;98258.97;6306682;22;20114;-79
2021/11/12 07:37:32;;;;;;;110.82;35.72;;;;;;;0.86;100.00;98245.78;6305119;22;20023;-78
2021/11/12 07:40:05;;;;;;;84.60;31.00;;;;;;;0.75;100.00;98249.31;6306825;22;20091;-78
2021/11/12 07:43:05;;;;;;;94.65;32.00;;;;;;;0.62;100.00;98249.56;6303185;22;20027;-79
2021/11/12 07:48:03;;;;;;;104.35;30.98;;;;;;;0.70;100.00;98257.19;6304698;22;20023;-80
2021/11/12 07:50:30;;;;;;;86.85;36.78;;;;;;;0.91;100.00;98245.88;6303624;22;20030;-80
2021/11/12 07:52:59;;;;;;;122.90;40.65;;;;;;;1.04;100.00;98240.28;6305560;22;20121;-77
2021/11/12 07:55:26;;;;;;;101.40;38.00;;;;;;;1.35;100.00;98244.28;6306922;22;20076;-81
2021/11/12 07:57:53;;;;;;;149.32;33.00;;;;;;;1.58;100.00;98228.13;6307067;22;20024;-79
2021/11/12 08:00:20;;;;;;;85.32;31.73;;;;;;;1.87;100.00;98228.84;6305079;22;20019;-79
2021/11/12 08:02:47;;;;;;;88.85;36.25;;;;;;;2.14;100.00;98232.44;6305267;22;20033;-80
2021/11/12 08:05:19;;;;;;;88.07;39.65;;;;;;;2.44;100.00;98232.06;6304276;22;20055;-81
2021/11/12 08:07:47;;;;;;;61.17;29.38;;;;;;;3.03;100.00;98230.31;6306245;22;20027;-79
2021/11/12 08:10:17;;;;;;;44.90;23.77;;;;;;;3.32;100.00;98238.91;6302714;22;20015;-81
2021/11/12 08:12:55;;;;;;;43.15;21.77;;;;;;;4.16;100.00;98237.97;6305763;22;20584;-79
2021/11/12 08:18:38;;;;;;;36.97;18.98;;;;;;;5.20;100.00;98223.63;6294390;22;20077;-79
2021/11/12 08:21:08;;;;;;;35.08;17.83;;;;;;;5.63;100.00;98220.47;6303631;22;20030;-80
2021/11/12 08:23:55;;;;;;;38.60;20.35;;;;;;;5.25;100.00;98210.22;6302772;22;20027;-78
2021/11/12 08:31:43;;;;;;;144.95;40.05;;;;;;;6.78;100.00;98207.88;6304333;22;20457;-80
2021/11/12 08:34:15;;;;;;;50.55;20.90;;;;;;;7.37;100.00;98205.13;6303373;22;20023;-82
2021/11/12 08:37:07;;;;;;;53.38;20.15;;;;;;;6.60;100.00;98187.78;6303847;22;20027;-79
2021/11/12 08:42:24;;;;;;;29.08;16.58;;;;;;;7.98;100.00;98192.75;6305769;22;20027;-81
2021/11/12 08:44:56;;;;;;;25.60;15.60;;;;;;;7.72;100.00;98180.59;6302791;22;20118;-81
2021/11/12 08:49:53;;;;;;;25.42;16.00;;;;;;;9.87;100.00;98172.69;6303706;22;20024;-81
2021/11/12 08:52:23;;;;;;;30.23;15.63;;;;;;;10.21;100.00;98166.97;6302935;22;20026;-80
2021/11/12 08:54:50;;;;;;;27.48;16.00;;;;;;;10.75;100.00;98176.19;6304133;22;20380;-81
2021/11/12 08:57:19;;;;;;;28.13;16.27;;;;;;;9.70;100.00;98177.06;6303948;22;20023;-83
2021/11/12 08:59:52;;;;;;;32.85;16.40;;;;;;;9.52;100.00;98169.78;6304088;22;20020;-80
2021/11/12 09:02:24;;;;;;;26.48;15.20;;;;;;;9.45;100.00;98175.53;6305181;22;20369;-84
2021/11/12 09:04:52;;;;;;;29.15;15.18;;;;;;;8.80;100.00;98171.09;6307044;22;20022;-84
2021/11/12 09:07:31;;;;;;;26.90;15.35;;;;;;;10.73;100.00;98159.47;6307288;22;20023;-82
2021/11/12 09:10:03;;;;;;;25.23;15.10;;;;;;;9.95;100.00;98161.19;6305138;22;20023;-83
2021/11/12 09:13:00;;;;;;;28.40;16.00;;;;;;;9.80;100.00;98166.06;6302565;22;20049;-83
2021/11/12 09:15:31;;;;;;;28.67;15.55;;;;;;;9.75;100.00;98158.84;6303012;22;20031;-79
2021/11/12 09:18:01;;;;;;;25.85;15.82;;;;;;;8.84;100.00;98145.13;6302871;22;20030;-81
2021/11/12 09:20:33;;;;;;;28.08;16.65;;;;;;;9.18;100.00;98145.72;6302859;22;20408;-81
2021/11/12 09:23:00;;;;;;;30.75;17.38;;;;;;;10.40;100.00;98148.72;6303684;22;20030;-82
2021/11/12 09:25:27;;;;;;;28.35;16.70;;;;;;;10.49;100.00;98119.06;6304082;22;20106;-82
2021/11/12 09:28:00;;;;;;;30.23;17.15;;;;;;;10.43;100.00;98129.19;6302539;22;20019;-82
2021/11/12 09:30:30;;;;;;;29.80;16.58;;;;;;;10.91;100.00;98126.84;6304394;22;20019;-81
2021/11/12 09:32:56;;;;;;;28.85;16.30;;;;;;;9.83;100.00;98154.66;6303647;22;20026;-82
2021/11/12 09:35:24;;;;;;;29.45;17.20;;;;;;;11.13;100.00;98131.47;6303275;22;20031;-81
2021/11/12 09:37:51;;;;;;;28.67;16.75;;;;;;;12.66;75.06;98128.06;6304582;22;20106;-81
2021/11/12 09:40:20;;;;;;;28.83;16.15;;;;;;;12.21;82.11;98138.28;6304343;22;20054;-79
2021/11/12 09:42:47;;;;;;;28.55;16.50;;;;;;;9.54;100.00;98127.84;6302421;22;20034;-84
2021/11/12 09:45:15;;;;;;;30.17;16.30;;;;;;;12.79;82.55;98118.97;6304543;22;20030;-81
2021/11/12 09:47:45;;;;;;;30.80;16.98;;;;;;;9.47;99.78;98113.13;6304033;22;20438;-81
2021/11/12 09:50:22;;;;;;;29.58;16.38;;;;;;;10.52;100.00;98134.72;6303717;22;20023;-83
2021/11/12 09:52:49;;;;;;;26.98;16.15;;;;;;;11.49;100.00;98120.59;6308510;22;20533;-81
2021/11/12 09:55:17;;;;;;;26.50;15.70;;;;;;;14.52;65.06;98117.63;6309764;22;20030;-79
2021/11/12 09:57:49;;;;;;;29.92;15.98;;;;;;;13.75;59.72;98092.25;6305299;22;20078;-83
2021/11/12 10:00:21;;;;;;;24.45;16.05;;;;;;;14.15;59.54;98092.75;6302491;22;20450;-81
2021/11/12 10:02:52;;;;;;;26.80;16.42;;;;;;;13.63;59.77;98103.00;6273261;22;20397;-79
2021/11/12 10:05:46;;;;;;;26.55;16.63;;;;;;;14.19;66.75;98099.16;6271577;22;20400;-82
2021/11/12 10:08:28;;;;;;;28.40;16.10;;;;;;;10.95;75.28;98092.59;6270640;22;20042;-83
2021/11/12 10:11:03;;;;;;;26.33;15.57;;;;;;;13.38;71.46;98089.44;6273306;22;20024;-80
2021/11/12 10:13:40;;;;;;;26.50;16.60;;;;;;;14.69;61.51;98080.16;6270720;22;20434;-82
2021/11/12 10:16:16;;;;;;;26.13;16.48;;;;;;;15.11;55.54;98066.56;6271578;22;20024;-80
2021/11/12 10:19:04;;;;;;;23.38;15.75;;;;;;;14.83;60.36;98072.56;6273515;22;20027;-80
2021/11/12 10:21:41;;;;;;;24.90;16.17;;;;;;;15.72;55.01;98062.94;6271686;22;20027;-82
2021/11/12 10:24:22;;;;;;;25.23;15.63;;;;;;;13.41;61.90;98070.56;6271605;22;20055;-80
2021/11/12 10:26:53;;;;;;;25.83;16.27;;;;;;;16.31;53.53;98052.44;6271999;22;20031;-82
2021/11/12 10:29:29;;;;;;;23.67;16.00;;;;;;;18.11;47.85;98048.66;6272189;22;20030;-79
2021/11/12 10:32:00;;;;;;;29.33;16.95;;;;;;;18.56;45.75;98038.81;6272865;22;20023;-84
2021/11/12 10:34:36;;;;;;;24.80;16.73;;;;;;;18.55;45.51;98039.19;6274758;22;20027;-80
2021/11/12 10:39:33;;;;;;;27.70;16.98;;;;;;;17.42;46.49;98004.19;6216456;23;20025;-80
2021/11/12 10:42:03;;;;;;;26.27;16.80;;;;;;;16.78;48.69;97981.66;6189700;23;20244;-80
2021/11/12 10:44:32;;;;;;;24.95;15.80;;;;;;;18.13;45.39;97977.84;6191207;23;20410;-80
2021/11/12 10:47:04;;;;;;;25.40;15.98;;;;;;;17.69;47.50;98020.97;6218258;23;20028;-80
2021/11/12 10:49:37;;;;;;;28.38;17.30;;;;;;;16.62;49.28;98014.41;6189570;23;20025;-80
2021/11/12 10:52:23;;;;;;;29.63;17.40;;;;;;;17.89;47.67;98008.97;6212044;23;20459;-80
2021/11/12 10:55:01;;;;;;;27.45;17.13;;;;;;;18.62;46.19;98007.25;6212525;23;20028;-80
2021/11/12 10:57:32;;;;;;;26.27;18.27;;;;;;;18.74;44.68;97997.31;6211408;23;20025;-81
2021/11/12 11:00:17;;;;;;;29.05;17.73;;;;;;;18.77;45.65;97994.63;6188931;23;20404;-79
2021/11/12 11:02:55;;;;;;;24.17;17.05;;;;;;;19.15;44.76;97980.91;6216136;23;20025;-80
2021/11/12 11:05:29;;;;;;;24.50;17.38;;;;;;;19.10;44.35;97972.97;6215619;23;20436;-80
2021/11/12 11:07:56;;;;;;;25.40;17.63;;;;;;;17.30;48.47;97971.44;6215292;23;20033;-81
2021/11/12 11:10:44;;;;;;;28.48;18.95;;;;;;;16.83;49.10;97979.50;6214674;23;20357;-81
2021/11/12 11:13:17;;;;;;;27.52;17.50;;;;;;;16.17;52.06;97973.56;6188067;23;20159;-81
2021/11/12 11:15:48;;;;;;;24.25;16.83;;;;;;;17.65;49.12;97968.06;6190436;23;20443;-79
2021/11/12 11:18:18;;;;;;;25.88;17.73;;;;;;;17.49;50.05;97951.59;6218368;23;20024;-80
2021/11/12 11:21:02;;;;;;;25.65;16.75;;;;;;;18.48;49.45;97954.00;6180892;23;20036;-80
2021/11/12 11:23:39;;;;;;;23.30;16.88;;;;;;;18.15;48.99;97948.94;6211984;23;20033;-79
2021/11/12 11:26:06;;;;;;;24.92;16.65;;;;;;;17.54;51.88;97956.03;6186861;23;20035;-81
2021/11/12 11:28:35;;;;;;;29.75;19.58;;;;;;;16.39;51.73;97955.09;6215160;23;20356;-80
2021/11/12 11:31:05;;;;;;;25.10;17.92;;;;;;;17.03;52.47;97953.09;6214681;23;20036;-80
2021/11/12 11:33:32;;;;;;;27.13;18.25;;;;;;;16.63;53.32;97944.13;6188090;23;20087;-81
2021/11/12 11:36:01;;;;;;;29.70;19.33;;;;;;;18.14;49.62;97941.09;6215029;23;20035;-80
2021/11/12 11:38:31;;;;;;;32.25;20.23;;;;;;;19.10;47.28;97929.06;6213754;23;20067;-79
2021/11/12 11:40:59;;;;;;;27.83;19.75;;;;;;;20.86;100.00;63355.56;6213112;23;20446;-80
2021/11/12 11:43:27;;;;;;;32.45;18.80;;;;;;;-141.50;100.00;63355.56;6185533;23;20402;-80
2021/11/12 11:45:55;;;;;;;32.03;20.38;;;;;;;-141.50;100.00;63355.56;6213283;23;20530;-80
2021/11/12 11:48:23;;;;;;;29.05;20.13;;;;;;;-141.50;100.00;63355.56;6213545;23;20628;-80
2021/11/12 11:51:15;;;;;;;27.00;19.05;;;;;;;-141.50;100.00;63355.56;6214029;23;20035;-80
2021/11/12 11:53:45;;;;;;;25.45;18.48;;;;;;;-141.50;100.00;63355.56;6213538;23;20060;-81
2021/11/12 11:56:44;;;;;;;25.35;18.55;;;;;;;-141.50;100.00;63355.56;6186957;23;20533;-80
2021/11/12 11:59:25;;;;;;;27.33;18.13;;;;;;;-141.50;100.00;63355.56;6190772;23;20305;-79
2021/11/12 12:01:52;;;;;;;25.00;17.77;;;;;;;-141.50;100.00;63355.56;6191694;23;20086;-79
2021/11/12 12:04:18;;;;;;;30.40;18.63;;;;;;;-141.50;100.00;63355.56;6218331;23;20173;-81
2021/11/12 12:07:00;;;;;;;26.92;17.55;;;;;;;-141.50;100.00;63355.56;6218799;23;20095;-81
2021/11/12 12:10:14;;;;;;;26.30;18.00;;;;;;;-141.50;100.00;63355.56;6218990;23;20455;-81
2021/11/12 12:12:43;;;;;;;27.88;18.55;;;;;;;-141.50;100.00;63355.56;6099373;23;20055;-80
2021/11/12 12:15:12;;;;;;;24.88;18.02;;;;;;;-141.50;100.00;63355.56;6208709;23;20028;-79
2021/11/12 12:17:44;;;;;;;27.05;19.25;;;;;;;-141.50;100.00;63355.56;6217686;23;20029;-79
2021/11/12 13:23:09;;;;;;;37.72;19.70;;;;;;;10.77;100.00;97811.09;6219521;23;20034;-79
2021/11/12 13:25:46;;;;;;;35.58;19.23;;;;;;;10.66;100.00;97805.16;6190974;23;20025;-79
2021/11/12 13:28:18;;;;;;;40.55;19.52;;;;;;;10.73;100.00;97802.03;6192461;23;20083;-80
2021/11/12 13:30:50;;;;;;;36.97;19.23;;;;;;;10.76;100.00;97799.50;6218194;23;20021;-80
2021/11/12 13:33:32;;;;;;;35.60;19.02;;;;;;;10.80;100.00;97799.66;6216036;23;20410;-80
2021/11/12 13:36:04;;;;;;;36.08;19.75;;;;;;;10.75;100.00;97797.91;6216469;23;20024;-78
2021/11/12 13:38:45;;;;;;;32.65;18.38;;;;;;;10.82;100.00;97798.25;6216214;23;20025;-78
2021/11/12 13:41:15;;;;;;;36.53;18.27;;;;;;;10.57;100.00;97791.59;6217294;23;20020;-79
2021/11/12 13:43:44;;;;;;;37.45;19.73;;;;;;;10.56;100.00;97794.59;6190602;23;20055;-79
2021/11/12 13:46:12;;;;;;;34.70;19.38;;;;;;;10.52;100.00;97791.72;6216385;23;20051;-79
2021/11/12 13:48:48;;;;;;;36.50;19.10;;;;;;;10.62;100.00;97783.34;6217803;23;20029;-79
2021/11/12 13:51:22;;;;;;;38.05;20.27;;;;;;;10.63;100.00;97782.22;6195068;23;20024;-80
2021/11/12 13:53:48;;;;;;;42.38;20.67;;;;;;;10.68;100.00;97778.59;6219279;23;20033;-80
2021/11/12 13:56:15;;;;;;;40.55;21.67;;;;;;;10.35;100.00;97771.91;6192734;23;20056;-78
2021/11/12 13:58:43;;;;;;;38.70;21.27;;;;;;;10.41;100.00;97776.06;6192070;23;20024;-80
2021/11/12 14:01:19;;;;;;;38.72;21.65;;;;;;;10.35;100.00;97788.91;6218706;23;20075;-80
2021/11/12 14:03:47;;;;;;;37.50;21.08;;;;;;;10.28;100.00;97772.31;6220208;23;20032;-83
2021/11/12 14:06:15;;;;;;;41.53;21.15;;;;;;;10.21;100.00;97771.16;6221507;23;20024;-81
2021/11/12 14:08:48;;;;;;;39.60;22.67;;;;;;;9.99;100.00;97778.13;6222388;23;20033;-81
2021/11/12 14:11:16;;;;;;;37.28;22.30;;;;;;;9.87;100.00;97771.69;6236312;23;20021;-81
2021/11/12 14:13:45;;;;;;;41.20;24.58;;;;;;;9.81;100.00;97760.19;6239360;23;20051;-80
2021/11/12 14:22:00;;;;;;;53.25;27.85;;;;;;;9.28;100.00;97768.16;6234769;23;20103;-81
2021/11/12 14:24:37;;;;;;;46.78;25.05;;;;;;;9.17;100.00;97764.06;6216310;23;20028;-81
2021/11/12 14:27:24;;;;;;;46.60;26.48;;;;;;;8.92;100.00;97751.09;6182197;23;20481;-79
2021/11/12 14:38:19;;;;;;;47.95;26.20;;;;;;;8.42;100.00;97762.84;6212949;23;20373;-79
2021/11/12 14:46:21;;;;;;;56.45;29.02;;;;;;;8.04;100.00;97757.56;6213289;23;20413;-81
2021/11/12 14:49:05;;;;;;;54.65;28.98;;;;;;;8.05;100.00;97753.75;6213618;23;20036;-81
2021/11/12 14:54:39;;;;;;;55.40;29.25;;;;;;;7.82;100.00;97756.59;6212473;23;20033;-81
2021/11/12 14:57:29;;;;;;;55.70;28.85;;;;;;;7.82;100.00;97761.97;6212279;23;20032;-79
2021/11/12 15:00:05;;;;;;;57.40;30.10;;;;;;;7.71;100.00;97749.75;6211826;23;20051;-80
2021/11/12 15:02:34;;;;;;;73.45;36.63;;;;;;;7.49;100.00;97745.75;6185845;23;20028;-81
2021/11/12 15:05:00;;;;;;;78.05;39.10;;;;;;;7.47;100.00;97758.72;6212004;23;20323;-81
2021/11/12 15:07:34;;;;;;;70.85;38.20;;;;;;;7.31;100.00;97751.94;6212438;23;20089;-80
2021/11/12 15:10:01;;;;;;;58.75;30.38;;;;;;;7.16;100.00;97764.81;6212178;23;20032;-81
2021/11/12 15:12:28;;;;;;;53.97;28.88;;;;;;;6.97;100.00;97770.16;6212048;23;20036;-80
2021/11/12 15:14:57;;;;;;;55.75;29.25;;;;;;;6.76;100.00;97763.44;6211750;23;20040;-81
2021/11/12 15:17:24;;;;;;;53.22;29.33;;;;;;;6.66;100.00;97760.84;6213195;23;20082;-80
2021/11/12 15:19:51;;;;;;;54.90;29.77;;;;;;;6.47;100.00;97768.84;6212337;23;20083;-80
2021/11/12 15:22:47;;;;;;;54.95;30.35;;;;;;;6.37;100.00;97765.47;6186534;23;20082;-80
2021/11/12 15:25:26;;;;;;;57.88;29.70;;;;;;;6.21;100.00;97784.44;6213088;23;20028;-80
2021/11/12 15:28:02;;;;;;;62.90;33.80;;;;;;;6.07;100.00;97778.09;6185937;23;20032;-80
2021/11/12 15:30:37;;;;;;;65.85;34.53;;;;;;;5.98;100.00;97779.81;6213622;23;20078;-80
2021/11/12 15:33:06;;;;;;;58.83;32.88;;;;;;;5.85;100.00;97788.50;6190417;23;20055;-80
2021/11/12 15:35:34;;;;;;;59.90;32.88;;;;;;;5.71;100.00;97789.38;6213398;23;20104;-80
2021/11/12 15:38:31;;;;;;;66.55;33.67;;;;;;;5.60;100.00;97789.44;6212224;23;20028;-80
2021/11/12 15:41:04;;;;;;;69.80;34.67;;;;;;;5.38;100.00;97791.75;6212380;23;20410;-80
2021/11/12 15:43:43;;;;;;;80.10;35.70;;;;;;;5.35;100.00;97783.44;6210187;23;20063;-80
2021/11/12 15:46:15;;;;;;;69.95;34.90;;;;;;;5.30;100.00;97800.38;6212525;23;20032;-81
2021/11/12 15:48:43;;;;;;;85.22;38.45;;;;;;;5.26;100.00;97803.88;6212310;23;20034;-80
2021/11/12 15:54:05;;;;;;;85.60;39.45;;;;;;;5.13;100.00;97799.13;6213325;23;20114;-78
2021/11/12 16:13:02;;;;;;;86.95;39.70;;;;;;;5.04;100.00;97823.84;6209880;23;20032;-80
2021/11/12 16:15:43;;;;;;;82.38;39.42;;;;;;;4.99;100.00;97817.69;6183508;23;20044;-80
2021/11/12 16:18:31;;;;;;;99.30;49.15;;;;;;;5.00;100.00;97820.09;6209717;23;20032;-79
2021/11/12 16:23:52;;;;;;;107.75;49.65;;;;;;;4.82;100.00;97831.44;6212206;23;20039;-79